Time;durP1;ratioP1;P1;durP2;ratioP2;P2;SDS_P1;SDS_P2;PMS_P1;PMS_P2;Temp;Humidity;BMP_temperature;BMP_pressure;BME280_temperature;BME280_humidity;BME280_pressure;Samples;Min_cycle;Max_cycle;Signal;HPM_P1;HPM_P2
2021/10/14 00:01:04;;;;;;;;;;;21.50;50.80;;;;;;495134;241;1152;-48
2021/10/14 00:03:06;;;;;;;;;;;21.50;50.90;;;;;;495395;240;1516;-48
2021/10/14 00:05:07;;;;;;;;;;;21.40;50.90;;;;;;495559;240;1155;-48
2021/10/14 00:07:08;;;;;;;;;;;21.40;50.90;;;;;;495196;241;1369;-47
2021/10/14 00:09:10;;;;;;;;;;;21.50;50.90;;;;;;495735;240;1044;-48
2021/10/14 00:11:11;;;;;;;;;;;21.50;50.90;;;;;;495498;240;2178;-48
2021/10/14 00:13:13;;;;;;;;;;;21.50;50.90;;;;;;495635;240;985;-47
2021/10/14 00:15:14;;;;;;;;;;;21.50;50.90;;;;;;495268;240;1217;-48
2021/10/14 00:17:15;;;;;;;;;;;21.50;50.80;;;;;;495569;240;1277;-48
2021/10/14 00:19:17;;;;;;;;;;;21.50;50.90;;;;;;495403;240;1178;-48
2021/10/14 00:21:18;;;;;;;;;;;21.50;50.90;;;;;;495235;240;1421;-47
2021/10/14 00:23:19;;;;;;;;;;;21.50;50.90;;;;;;495741;240;1253;-48
2021/10/14 00:25:22;;;;;;;;;;;21.50;50.90;;;;;;495288;241;1052;-48
2021/10/14 00:27:22;;;;;;;;;;;21.50;50.90;;;;;;495158;241;2522;-48
2021/10/14 00:29:23;;;;;;;;;;;21.50;50.90;;;;;;495292;241;1080;-48
2021/10/14 00:31:25;;;;;;;;;;;21.50;50.90;;;;;;495609;240;2186;-48
2021/10/14 00:33:26;;;;;;;;;;;21.50;50.80;;;;;;495319;240;1320;-47
2021/10/14 00:35:27;;;;;;;;;;;21.50;50.90;;;;;;495286;241;1517;-47
2021/10/14 00:37:28;;;;;;;;;;;21.50;50.90;;;;;;495596;240;1175;-48
2021/10/14 00:39:30;;;;;;;;;;;21.50;50.90;;;;;;495421;240;1058;-47
2021/10/14 00:41:31;;;;;;;;;;;21.50;50.80;;;;;;495243;240;1213;-48
2021/10/14 00:43:32;;;;;;;;;;;21.50;50.90;;;;;;495329;240;1091;-48
2021/10/14 00:45:34;;;;;;;;;;;21.50;50.90;;;;;;495672;240;1214;-48
2021/10/14 00:47:35;;;;;;;;;;;21.40;50.90;;;;;;495220;241;1098;-48
2021/10/14 00:49:36;;;;;;;;;;;21.40;50.90;;;;;;495238;241;1182;-48
2021/10/14 00:51:38;;;;;;;;;;;21.50;50.90;;;;;;495199;240;2178;-47
2021/10/14 00:53:39;;;;;;;;;;;21.50;50.90;;;;;;495655;240;1151;-47
2021/10/14 00:55:40;;;;;;;;;;;21.40;50.90;;;;;;495495;240;1333;-48
2021/10/14 00:57:42;;;;;;;;;;;21.50;50.90;;;;;;495193;241;1165;-48
2021/10/14 00:59:43;;;;;;;;;;;21.50;50.90;;;;;;495252;241;1236;-48
2021/10/14 01:01:44;;;;;;;;;;;21.50;50.90;;;;;;495339;240;1357;-48
2021/10/14 01:03:46;;;;;;;;;;;21.50;50.90;;;;;;495586;240;1136;-48
2021/10/14 01:05:47;;;;;;;;;;;21.40;50.90;;;;;;495474;240;1300;-48
2021/10/14 01:07:49;;;;;;;;;;;21.50;50.90;;;;;;495500;240;1188;-47
2021/10/14 01:09:50;;;;;;;;;;;21.40;50.90;;;;;;495617;240;1099;-47
2021/10/14 01:11:51;;;;;;;;;;;21.50;50.80;;;;;;495218;241;2130;-47
2021/10/14 01:13:53;;;;;;;;;;;21.50;50.90;;;;;;495305;241;1053;-48
2021/10/14 01:15:54;;;;;;;;;;;21.50;50.80;;;;;;495182;241;1241;-48
2021/10/14 01:17:55;;;;;;;;;;;21.50;50.80;;;;;;495175;241;1140;-48
2021/10/14 01:19:57;;;;;;;;;;;21.50;50.80;;;;;;495398;240;1144;-48
2021/10/14 01:21:58;;;;;;;;;;;21.40;50.80;;;;;;495089;241;1375;-48
2021/10/14 01:23:59;;;;;;;;;;;21.50;50.80;;;;;;495472;240;1076;-47
2021/10/14 01:26:00;;;;;;;;;;;21.50;50.90;;;;;;495652;240;2259;-47
2021/10/14 01:28:02;;;;;;;;;;;21.40;50.90;;;;;;495378;240;1183;-48
2021/10/14 01:30:03;;;;;;;;;;;21.40;50.90;;;;;;495671;240;1032;-48
2021/10/14 01:32:04;;;;;;;;;;;21.40;51.00;;;;;;495305;240;2120;-48
2021/10/14 01:34:06;;;;;;;;;;;21.40;50.90;;;;;;495191;241;1153;-48
2021/10/14 01:36:07;;;;;;;;;;;21.40;51.00;;;;;;495588;240;1150;-48
2021/10/14 01:38:08;;;;;;;;;;;21.40;50.90;;;;;;495552;240;1158;-47
2021/10/14 01:40:10;;;;;;;;;;;21.40;50.90;;;;;;495314;240;1036;-48
2021/10/14 01:42:11;;;;;;;;;;;21.50;50.90;;;;;;495113;241;1168;-48
2021/10/14 01:44:12;;;;;;;;;;;21.40;50.80;;;;;;495226;241;1044;-48
2021/10/14 01:46:14;;;;;;;;;;;21.40;50.80;;;;;;495339;240;1214;-48
2021/10/14 01:48:15;;;;;;;;;;;21.50;50.80;;;;;;495238;241;1051;-47
2021/10/14 01:50:16;;;;;;;;;;;21.40;50.80;;;;;;495254;240;1343;-48
2021/10/14 01:52:18;;;;;;;;;;;21.40;50.80;;;;;;495601;240;2123;-48
2021/10/14 01:54:19;;;;;;;;;;;21.40;50.80;;;;;;495489;240;1048;-48
2021/10/14 01:56:20;;;;;;;;;;;21.40;50.90;;;;;;495178;241;1296;-47
2021/10/14 01:58:22;;;;;;;;;;;21.40;50.80;;;;;;495425;240;1012;-47
2021/10/14 02:00:23;;;;;;;;;;;21.40;50.80;;;;;;495233;241;1043;-47
2021/10/14 02:02:24;;;;;;;;;;;21.50;50.90;;;;;;495680;240;1215;-47
2021/10/14 02:04:26;;;;;;;;;;;21.50;50.80;;;;;;495391;240;1304;-48
2021/10/14 02:06:27;;;;;;;;;;;21.50;50.80;;;;;;495529;240;1261;-48
2021/10/14 02:08:28;;;;;;;;;;;21.50;50.90;;;;;;495591;240;1166;-48
2021/10/14 02:10:29;;;;;;;;;;;21.40;50.90;;;;;;495216;241;1160;-47
2021/10/14 02:12:31;;;;;;;;;;;21.40;50.80;;;;;;495451;240;2190;-48
2021/10/14 02:14:32;;;;;;;;;;;21.40;50.80;;;;;;495702;240;1057;-48
2021/10/14 02:16:33;;;;;;;;;;;21.40;50.70;;;;;;495443;240;1207;-48
2021/10/14 02:18:35;;;;;;;;;;;21.40;50.80;;;;;;495652;240;1078;-48
2021/10/14 02:20:36;;;;;;;;;;;21.40;50.70;;;;;;495377;240;1176;-47
2021/10/14 02:22:37;;;;;;;;;;;21.40;50.80;;;;;;495396;240;977;-48
2021/10/14 02:24:39;;;;;;;;;;;21.40;50.80;;;;;;495707;240;1044;-48
2021/10/14 02:26:40;;;;;;;;;;;21.40;50.90;;;;;;495633;240;1083;-48
2021/10/14 02:28:41;;;;;;;;;;;21.40;50.80;;;;;;495532;240;1030;-47
2021/10/14 02:30:43;;;;;;;;;;;21.50;50.90;;;;;;495438;240;1052;-48
2021/10/14 02:32:44;;;;;;;;;;;21.40;50.80;;;;;;495210;241;2185;-47
2021/10/14 02:34:45;;;;;;;;;;;21.40;50.80;;;;;;495239;241;1183;-48
2021/10/14 02:36:47;;;;;;;;;;;21.40;50.80;;;;;;495198;237;1142;-48
2021/10/14 02:38:48;;;;;;;;;;;21.40;50.80;;;;;;495325;240;1063;-47
2021/10/14 02:40:50;;;;;;;;;;;21.40;50.80;;;;;;495248;240;1334;-47
2021/10/14 02:42:51;;;;;;;;;;;21.40;50.80;;;;;;495577;240;1194;-48
2021/10/14 02:44:52;;;;;;;;;;;21.40;50.80;;;;;;495346;240;1008;-48
2021/10/14 02:46:53;;;;;;;;;;;21.40;50.80;;;;;;495158;241;1261;-47
2021/10/14 02:48:55;;;;;;;;;;;21.40;50.80;;;;;;495305;240;1063;-48
2021/10/14 02:50:56;;;;;;;;;;;21.50;50.80;;;;;;495339;240;1216;-48
2021/10/14 02:52:57;;;;;;;;;;;21.50;50.80;;;;;;495119;241;2182;-47
2021/10/14 02:54:59;;;;;;;;;;;21.40;50.70;;;;;;495143;241;1102;-47
2021/10/14 02:57:00;;;;;;;;;;;21.40;50.80;;;;;;495325;240;1272;-48
2021/10/14 02:59:01;;;;;;;;;;;21.40;50.80;;;;;;495676;240;970;-48
2021/10/14 03:01:03;;;;;;;;;;;21.40;50.80;;;;;;495585;240;1428;-48
2021/10/14 03:03:04;;;;;;;;;;;21.40;50.70;;;;;;495457;240;1049;-47
2021/10/14 03:05:05;;;;;;;;;;;21.40;50.80;;;;;;495680;240;1132;-48
2021/10/14 03:07:07;;;;;;;;;;;21.40;50.80;;;;;;495586;240;1294;-48
2021/10/14 03:09:08;;;;;;;;;;;21.40;50.80;;;;;;495484;240;1034;-47
2021/10/14 03:11:09;;;;;;;;;;;21.40;50.80;;;;;;495672;240;1601;-48
2021/10/14 03:13:11;;;;;;;;;;;21.40;50.80;;;;;;495240;241;2182;-48
2021/10/14 03:15:12;;;;;;;;;;;21.40;50.90;;;;;;495270;241;1083;-48
2021/10/14 03:17:13;;;;;;;;;;;21.40;50.80;;;;;;495473;240;1335;-48
2021/10/14 03:19:14;;;;;;;;;;;21.40;50.70;;;;;;495620;240;1061;-47
2021/10/14 03:21:16;;;;;;;;;;;21.50;50.70;;;;;;495211;236;1201;-47
2021/10/14 03:23:17;;;;;;;;;;;21.40;50.70;;;;;;495234;241;1188;-47
2021/10/14 03:25:18;;;;;;;;;;;21.40;50.80;;;;;;495222;241;1049;-48
2021/10/14 03:27:20;;;;;;;;;;;21.40;50.90;;;;;;495286;240;1422;-48
2021/10/14 03:29:21;;;;;;;;;;;21.40;50.80;;;;;;495258;241;1077;-48
2021/10/14 03:31:22;;;;;;;;;;;21.40;50.80;;;;;;495281;240;1349;-48
2021/10/14 03:33:24;;;;;;;;;;;21.40;50.70;;;;;;495475;240;2115;-48
2021/10/14 03:35:25;;;;;;;;;;;21.40;50.80;;;;;;495190;241;1155;-48
2021/10/14 03:37:26;;;;;;;;;;;21.40;50.80;;;;;;495387;240;1271;-47
2021/10/14 03:39:28;;;;;;;;;;;21.40;50.70;;;;;;495230;241;1049;-47
2021/10/14 03:41:29;;;;;;;;;;;21.40;50.70;;;;;;495670;240;1687;-47
2021/10/14 03:43:30;;;;;;;;;;;21.40;50.70;;;;;;495250;240;987;-48
2021/10/14 03:45:32;;;;;;;;;;;21.40;50.70;;;;;;495226;240;1279;-48
2021/10/14 03:47:33;;;;;;;;;;;21.40;50.80;;;;;;495394;240;1133;-47
2021/10/14 03:49:34;;;;;;;;;;;21.40;50.80;;;;;;495574;240;975;-48
2021/10/14 03:51:36;;;;;;;;;;;21.40;50.80;;;;;;495150;240;1268;-48
2021/10/14 03:53:37;;;;;;;;;;;21.40;50.70;;;;;;495684;240;2103;-48
2021/10/14 03:55:38;;;;;;;;;;;21.40;50.70;;;;;;495335;240;1151;-47
2021/10/14 03:57:39;;;;;;;;;;;21.40;50.80;;;;;;495462;240;996;-48
2021/10/14 03:59:41;;;;;;;;;;;21.40;50.80;;;;;;495210;241;1009;-47
2021/10/14 04:01:42;;;;;;;;;;;21.40;50.70;;;;;;495209;240;1207;-48
2021/10/14 04:03:44;;;;;;;;;;;21.40;50.80;;;;;;495159;241;1055;-48
2021/10/14 04:05:45;;;;;;;;;;;21.40;50.70;;;;;;495460;240;1171;-48
2021/10/14 04:07:46;;;;;;;;;;;21.40;50.70;;;;;;495103;240;1012;-47
2021/10/14 04:09:47;;;;;;;;;;;21.40;50.80;;;;;;495508;240;1029;-48
2021/10/14 04:11:49;;;;;;;;;;;21.40;50.70;;;;;;495200;240;1685;-47
2021/10/14 04:13:50;;;;;;;;;;;21.40;50.70;;;;;;495203;241;2179;-48
2021/10/14 04:15:51;;;;;;;;;;;21.40;50.70;;;;;;495082;241;1594;-47
2021/10/14 04:17:53;;;;;;;;;;;21.40;50.70;;;;;;495143;241;1084;-47
2021/10/14 04:19:54;;;;;;;;;;;21.40;50.60;;;;;;495658;240;1068;-47
2021/10/14 04:21:55;;;;;;;;;;;21.40;50.70;;;;;;495134;240;1216;-48
2021/10/14 04:23:58;;;;;;;;;;;21.40;50.70;;;;;;495491;240;1043;-48
2021/10/14 04:25:58;;;;;;;;;;;21.40;50.70;;;;;;495065;237;2164;-47
2021/10/14 04:27:59;;;;;;;;;;;21.40;50.70;;;;;;495265;240;1075;-47
2021/10/14 04:30:01;;;;;;;;;;;21.40;50.70;;;;;;495432;240;996;-47
2021/10/14 04:32:02;;;;;;;;;;;21.40;50.70;;;;;;495352;240;2111;-48
2021/10/14 04:34:03;;;;;;;;;;;21.40;50.70;;;;;;495579;240;1058;-47
2021/10/14 04:36:05;;;;;;;;;;;21.40;50.60;;;;;;495032;241;1148;-47
2021/10/14 04:38:06;;;;;;;;;;;21.40;50.60;;;;;;495084;240;1184;-47
2021/10/14 04:40:07;;;;;;;;;;;21.40;50.60;;;;;;495278;240;1217;-48
2021/10/14 04:42:08;;;;;;;;;;;21.40;50.70;;;;;;495025;241;1380;-48
2021/10/14 04:44:10;;;;;;;;;;;21.40;50.60;;;;;;495135;240;1209;-48
2021/10/14 04:46:11;;;;;;;;;;;21.40;50.70;;;;;;495013;241;1117;-47
2021/10/14 04:48:12;;;;;;;;;;;21.40;50.60;;;;;;495321;240;1078;-48
2021/10/14 04:50:14;;;;;;;;;;;21.30;50.70;;;;;;495343;240;1568;-47
2021/10/14 04:52:15;;;;;;;;;;;21.40;50.70;;;;;;495189;240;2139;-47
2021/10/14 04:54:16;;;;;;;;;;;21.40;50.60;;;;;;495083;240;1070;-48
2021/10/14 04:56:18;;;;;;;;;;;21.40;50.60;;;;;;495028;240;1102;-47
2021/10/14 04:58:19;;;;;;;;;;;21.40;50.60;;;;;;494925;241;1168;-48
2021/10/14 05:00:20;;;;;;;;;;;21.40;50.60;;;;;;494974;241;1044;-47
2021/10/14 05:02:22;;;;;;;;;;;21.40;50.60;;;;;;495144;240;992;-48
2021/10/14 05:04:23;;;;;;;;;;;21.50;50.60;;;;;;495156;240;1059;-48
2021/10/14 05:06:25;;;;;;;;;;;21.40;50.50;;;;;;495176;240;1658;-48
2021/10/14 05:08:26;;;;;;;;;;;21.40;50.60;;;;;;495007;241;1195;-48
2021/10/14 05:10:27;;;;;;;;;;;21.40;50.60;;;;;;495163;240;1352;-48
2021/10/14 05:12:29;;;;;;;;;;;21.40;50.70;;;;;;494883;240;2190;-48
2021/10/14 05:14:31;;;;;;;;;;;21.40;50.70;;;;;;494888;240;1100;-48
2021/10/14 05:16:33;;;;;;;;;;;21.40;50.70;;;;;;494855;241;1493;-48
2021/10/14 05:18:34;;;;;;;;;;;21.40;50.60;;;;;;495070;240;1702;-48
2021/10/14 05:20:35;;;;;;;;;;;21.40;50.60;;;;;;494946;241;1134;-48
2021/10/14 05:22:36;;;;;;;;;;;21.40;50.60;;;;;;495140;240;1244;-47
2021/10/14 05:24:37;;;;;;;;;;;21.40;50.60;;;;;;494959;241;1178;-47
2021/10/14 05:26:39;;;;;;;;;;;21.40;50.50;;;;;;494896;241;1466;-48
2021/10/14 05:28:41;;;;;;;;;;;21.40;50.50;;;;;;495121;240;1023;-48
2021/10/14 05:30:42;;;;;;;;;;;21.40;50.60;;;;;;494895;241;1527;-48
2021/10/14 05:32:43;;;;;;;;;;;21.40;50.60;;;;;;494855;240;2178;-47
2021/10/14 05:34:44;;;;;;;;;;;21.40;50.50;;;;;;494915;240;1064;-48
2021/10/14 05:36:46;;;;;;;;;;;21.40;50.50;;;;;;494724;240;1179;-47
2021/10/14 05:38:47;;;;;;;;;;;21.40;50.50;;;;;;494792;241;1142;-47
2021/10/14 05:40:49;;;;;;;;;;;21.40;50.50;;;;;;494703;241;1219;-48
2021/10/14 05:42:50;;;;;;;;;;;21.50;50.50;;;;;;494737;240;2166;-48
2021/10/14 05:44:51;;;;;;;;;;;21.40;50.50;;;;;;494801;241;1211;-48
2021/10/14 05:46:52;;;;;;;;;;;21.40;50.50;;;;;;494677;241;1108;-48
2021/10/14 05:48:54;;;;;;;;;;;21.40;50.50;;;;;;494851;240;1007;-47
2021/10/14 05:50:55;;;;;;;;;;;21.40;50.50;;;;;;494861;241;1522;-47
2021/10/14 05:52:57;;;;;;;;;;;21.40;50.60;;;;;;494886;240;2195;-47
2021/10/14 05:54:59;;;;;;;;;;;21.40;50.60;;;;;;494876;241;1045;-48
2021/10/14 05:57:00;;;;;;;;;;;21.40;50.60;;;;;;494607;241;1804;-48
2021/10/14 05:59:01;;;;;;;;;;;21.40;50.60;;;;;;494631;240;1144;-48
2021/10/14 06:01:02;;;;;;;;;;;21.40;50.60;;;;;;494792;240;1107;-48
2021/10/14 06:03:04;;;;;;;;;;;21.40;50.60;;;;;;494666;241;1121;-48
2021/10/14 06:05:05;;;;;;;;;;;21.40;50.60;;;;;;494800;240;1050;-48
2021/10/14 06:07:06;;;;;;;;;;;21.40;50.60;;;;;;494580;241;1293;-48
2021/10/14 06:09:08;;;;;;;;;;;21.40;50.50;;;;;;494651;240;1196;-47
2021/10/14 06:11:09;;;;;;;;;;;21.40;50.50;;;;;;494890;240;1162;-47
2021/10/14 06:13:10;;;;;;;;;;;21.40;50.60;;;;;;494655;241;2134;-48
2021/10/14 06:15:12;;;;;;;;;;;21.40;50.50;;;;;;494846;240;1055;-48
2021/10/14 06:17:13;;;;;;;;;;;21.40;50.50;;;;;;494600;240;1218;-47
2021/10/14 06:19:14;;;;;;;;;;;21.40;50.50;;;;;;494550;241;1240;-48
2021/10/14 06:21:15;;;;;;;;;;;21.40;50.50;;;;;;494760;240;1232;-47
2021/10/14 06:23:17;;;;;;;;;;;21.40;50.60;;;;;;494639;240;1202;-47
2021/10/14 06:25:18;;;;;;;;;;;21.40;50.60;;;;;;494687;241;1088;-48
2021/10/14 06:27:19;;;;;;;;;;;21.30;50.60;;;;;;494668;240;1204;-48
2021/10/14 06:29:21;;;;;;;;;;;21.40;50.60;;;;;;494740;241;1053;-48
2021/10/14 06:31:22;;;;;;;;;;;21.40;50.60;;;;;;494729;240;1325;-48
2021/10/14 06:33:23;;;;;;;;;;;21.40;50.60;;;;;;494751;240;2194;-48
2021/10/14 06:35:25;;;;;;;;;;;21.40;50.50;;;;;;494574;240;1087;-48
2021/10/14 06:37:26;;;;;;;;;;;21.40;50.50;;;;;;494617;240;1317;-48
2021/10/14 06:39:28;;;;;;;;;;;21.40;50.50;;;;;;494455;240;1584;-47
2021/10/14 06:41:29;;;;;;;;;;;21.40;50.50;;;;;;494549;240;1199;-48
2021/10/14 06:43:30;;;;;;;;;;;21.30;50.60;;;;;;494597;240;1072;-47
2021/10/14 06:45:32;;;;;;;;;;;21.40;50.60;;;;;;494462;241;1081;-48
2021/10/14 06:47:33;;;;;;;;;;;21.40;50.70;;;;;;494210;240;1976;-47
2021/10/14 06:49:34;;;;;;;;;;;21.40;50.60;;;;;;494287;241;1038;-47
2021/10/14 06:51:35;;;;;;;;;;;21.40;50.60;;;;;;494311;240;1244;-48
2021/10/14 06:53:37;;;;;;;;;;;21.40;50.70;;;;;;494344;237;2190;-48
2021/10/14 06:55:38;;;;;;;;;;;21.40;50.60;;;;;;494265;240;1252;-47
2021/10/14 06:57:39;;;;;;;;;;;21.40;50.60;;;;;;494375;240;1218;-48
2021/10/14 06:59:41;;;;;;;;;;;21.40;50.50;;;;;;494347;240;1166;-48
2021/10/14 07:01:42;;;;;;;;;;;21.40;50.50;;;;;;494333;240;1296;-48
2021/10/14 07:03:43;;;;;;;;;;;21.40;50.50;;;;;;494492;240;1076;-48
2021/10/14 07:05:45;;;;;;;;;;;21.40;50.50;;;;;;494387;241;1087;-47
2021/10/14 07:07:46;;;;;;;;;;;21.40;50.50;;;;;;494425;240;1075;-48
2021/10/14 07:09:48;;;;;;;;;;;21.40;50.50;;;;;;494471;241;1214;-47
2021/10/14 07:11:54;;;;;;;;;;;21.30;50.60;;;;;;494384;241;1188;-47
2021/10/14 07:13:54;;;;;;;;;;;21.40;50.60;;;;;;494719;240;2190;-48
2021/10/14 07:15:58;;;;;;;;;;;21.40;50.60;;;;;;494817;237;1129;-48
2021/10/14 07:17:56;;;;;;;;;;;21.40;50.50;;;;;;494197;240;2052;-48
2021/10/14 07:19:58;;;;;;;;;;;21.40;50.50;;;;;;494238;241;1131;-48
2021/10/14 07:22:01;;;;;;;;;;;21.40;50.60;;;;;;494481;240;1416;-48
2021/10/14 07:24:01;;;;;;;;;;;21.40;50.60;;;;;;494893;240;2224;-48
2021/10/14 07:26:02;;;;;;;;;;;21.40;50.60;;;;;;495118;240;1098;-48
2021/10/14 07:28:03;;;;;;;;;;;21.30;50.60;;;;;;494673;241;1175;-48
2021/10/14 07:30:05;;;;;;;;;;;21.30;50.60;;;;;;495121;240;917;-47
2021/10/14 07:32:06;;;;;;;;;;;21.30;50.60;;;;;;495177;240;1136;-48
2021/10/14 07:34:07;;;;;;;;;;;21.40;50.50;;;;;;494724;241;2193;-47
2021/10/14 07:36:09;;;;;;;;;;;21.40;50.50;;;;;;494340;240;1172;-47
2021/10/14 07:38:10;;;;;;;;;;;21.40;50.50;;;;;;494419;240;1148;-47
2021/10/14 07:40:11;;;;;;;;;;;21.40;50.50;;;;;;494474;240;1219;-48
2021/10/14 07:42:13;;;;;;;;;;;21.40;50.50;;;;;;494385;240;1327;-48
2021/10/14 07:44:15;;;;;;;;;;;21.40;50.60;;;;;;494501;240;1225;-48
2021/10/14 07:46:15;;;;;;;;;;;21.40;50.50;;;;;;494183;240;2002;-47
2021/10/14 07:48:17;;;;;;;;;;;21.30;50.50;;;;;;494220;240;1236;-47
2021/10/14 07:50:18;;;;;;;;;;;21.30;50.60;;;;;;494255;240;1067;-48
2021/10/14 07:52:19;;;;;;;;;;;21.30;50.60;;;;;;494395;240;1414;-48
2021/10/14 07:54:22;;;;;;;;;;;21.40;50.60;;;;;;494316;241;2202;-48
2021/10/14 07:56:22;;;;;;;;;;;21.40;50.50;;;;;;494256;240;2157;-48
2021/10/14 07:58:23;;;;;;;;;;;21.40;50.50;;;;;;494251;241;1048;-48
2021/10/14 08:00:25;;;;;;;;;;;21.40;50.50;;;;;;494267;240;1130;-47
2021/10/14 08:02:26;;;;;;;;;;;21.40;50.50;;;;;;494261;241;1158;-48
2021/10/14 08:04:28;;;;;;;;;;;21.30;50.60;;;;;;494436;240;1102;-48
2021/10/14 08:06:29;;;;;;;;;;;21.30;50.60;;;;;;494278;240;1237;-48
2021/10/14 08:08:30;;;;;;;;;;;21.30;50.50;;;;;;494670;241;815;-47
2021/10/14 08:10:32;;;;;;;;;;;21.30;50.50;;;;;;494418;240;1121;-48
2021/10/14 08:12:33;;;;;;;;;;;21.30;50.70;;;;;;494427;241;1387;-47
2021/10/14 08:14:34;;;;;;;;;;;21.30;50.60;;;;;;494350;241;2115;-47
2021/10/14 08:16:36;;;;;;;;;;;21.40;50.60;;;;;;494420;240;1202;-47
2021/10/14 08:18:37;;;;;;;;;;;21.40;50.50;;;;;;494463;240;1270;-47
2021/10/14 08:20:38;;;;;;;;;;;21.40;50.50;;;;;;494325;240;1151;-48
2021/10/14 08:22:39;;;;;;;;;;;21.40;50.50;;;;;;494693;240;1208;-48
2021/10/14 08:24:41;;;;;;;;;;;21.40;50.50;;;;;;494540;240;1203;-48
2021/10/14 08:26:42;;;;;;;;;;;21.30;50.50;;;;;;494364;241;1239;-48
2021/10/14 08:28:43;;;;;;;;;;;21.30;50.50;;;;;;494424;241;1098;-48
2021/10/14 08:30:46;;;;;;;;;;;21.40;50.40;;;;;;494058;241;1307;-48
2021/10/14 08:32:47;;;;;;;;;;;21.40;50.40;;;;;;494069;240;2006;-47
2021/10/14 08:34:47;;;;;;;;;;;21.40;50.50;;;;;;494198;240;2181;-48
2021/10/14 08:36:49;;;;;;;;;;;21.40;50.50;;;;;;494136;240;1358;-48
2021/10/14 08:38:50;;;;;;;;;;;21.40;50.50;;;;;;494168;241;1104;-48
2021/10/14 08:40:51;;;;;;;;;;;21.30;50.40;;;;;;494298;240;1310;-48
2021/10/14 08:42:53;;;;;;;;;;;21.40;50.60;;;;;;494318;241;1074;-48
2021/10/14 08:44:54;;;;;;;;;;;21.40;50.60;;;;;;494276;240;1075;-48
2021/10/14 08:46:55;;;;;;;;;;;21.40;50.50;;;;;;493964;241;1411;-48
2021/10/14 08:48:57;;;;;;;;;;;21.40;50.50;;;;;;493912;240;1045;-47
2021/10/14 08:50:58;;;;;;;;;;;21.40;50.50;;;;;;494006;240;1320;-48
2021/10/14 08:52:59;;;;;;;;;;;21.40;50.50;;;;;;494073;240;1100;-48
2021/10/14 08:55:01;;;;;;;;;;;21.40;50.50;;;;;;494066;240;2119;-48
2021/10/14 08:57:02;;;;;;;;;;;21.40;50.50;;;;;;494057;240;1075;-47
2021/10/14 08:59:03;;;;;;;;;;;21.40;50.50;;;;;;494045;241;1063;-48
2021/10/14 09:01:05;;;;;;;;;;;21.40;50.50;;;;;;494289;240;1255;-48
2021/10/14 09:03:06;;;;;;;;;;;21.40;50.50;;;;;;494517;241;1162;-48
2021/10/14 09:05:09;;;;;;;;;;;21.30;50.50;;;;;;494524;241;1131;-47
2021/10/14 09:07:09;;;;;;;;;;;21.30;50.60;;;;;;494411;240;2011;-47
2021/10/14 09:09:10;;;;;;;;;;;21.30;50.60;;;;;;494604;241;1401;-48
2021/10/14 09:11:12;;;;;;;;;;;21.30;50.60;;;;;;494735;240;1422;-47
2021/10/14 09:13:13;;;;;;;;;;;21.30;50.50;;;;;;494744;240;1067;-48
2021/10/14 09:15:14;;;;;;;;;;;21.30;50.40;;;;;;494364;240;2112;-48
2021/10/14 09:17:16;;;;;;;;;;;21.40;50.50;;;;;;494594;240;1089;-47
2021/10/14 09:19:17;;;;;;;;;;;21.40;50.50;;;;;;495132;240;1031;-48
2021/10/14 09:21:19;;;;;;;;;;;21.40;50.50;;;;;;494246;241;1341;-47
2021/10/14 09:23:21;;;;;;;;;;;21.40;50.40;;;;;;495165;240;804;-47
2021/10/14 09:25:22;;;;;;;;;;;21.40;50.40;;;;;;494649;241;2099;-48
2021/10/14 09:27:23;;;;;;;;;;;21.50;50.40;;;;;;495105;240;1236;-48
2021/10/14 09:29:27;;;;;;;;;;;21.40;50.30;;;;;;495157;240;822;-48
2021/10/14 09:31:27;;;;;;;;;;;21.50;50.30;;;;;;494420;237;1211;-47
2021/10/14 09:33:28;;;;;;;;;;;21.50;50.40;;;;;;495071;240;826;-48
2021/10/14 09:35:29;;;;;;;;;;;21.50;50.40;;;;;;495058;240;2174;-48
2021/10/14 09:37:31;;;;;;;;;;;21.50;50.30;;;;;;495203;240;1045;-48
2021/10/14 09:39:32;;;;;;;;;;;21.50;50.40;;;;;;495293;240;839;-48
2021/10/14 09:41:34;;;;;;;;;;;21.50;50.40;;;;;;494760;241;1582;-48
2021/10/14 09:43:35;;;;;;;;;;;21.50;50.40;;;;;;495166;240;1072;-47
2021/10/14 09:45:36;;;;;;;;;;;21.50;50.40;;;;;;494727;241;813;-47
2021/10/14 09:47:37;;;;;;;;;;;21.50;50.40;;;;;;494486;241;1147;-48
2021/10/14 09:49:39;;;;;;;;;;;21.50;50.40;;;;;;495027;240;850;-47
2021/10/14 09:51:40;;;;;;;;;;;21.50;50.40;;;;;;495157;240;1031;-48
2021/10/14 09:53:41;;;;;;;;;;;21.50;50.40;;;;;;494368;241;1279;-48
2021/10/14 09:55:43;;;;;;;;;;;21.50;50.40;;;;;;494260;241;2186;-48
2021/10/14 09:57:44;;;;;;;;;;;21.50;50.40;;;;;;494170;240;1087;-47
2021/10/14 09:59:50;;;;;;;;;;;21.50;50.50;;;;;;494174;240;1057;-48
2021/10/14 10:01:48;;;;;;;;;;;21.40;50.40;;;;;;493826;240;2283;-48
2021/10/14 10:03:48;;;;;;;;;;;21.50;50.40;;;;;;494196;240;2362;-47
2021/10/14 10:05:49;;;;;;;;;;;21.40;50.50;;;;;;494233;241;1121;-48
2021/10/14 10:07:50;;;;;;;;;;;21.40;50.50;;;;;;494389;240;1226;-48
2021/10/14 10:09:52;;;;;;;;;;;21.40;50.50;;;;;;494468;240;1062;-48
2021/10/14 10:11:53;;;;;;;;;;;21.40;50.40;;;;;;494428;240;1486;-48
2021/10/14 10:13:55;;;;;;;;;;;21.40;50.50;;;;;;494421;241;1097;-47
2021/10/14 10:15:56;;;;;;;;;;;21.40;50.40;;;;;;494415;240;2174;-48
2021/10/14 10:17:57;;;;;;;;;;;21.40;50.50;;;;;;494351;240;1103;-47
2021/10/14 10:19:59;;;;;;;;;;;21.40;50.50;;;;;;494317;241;1108;-48
2021/10/14 10:22:00;;;;;;;;;;;21.40;50.60;;;;;;494235;241;1328;-48
2021/10/14 10:24:01;;;;;;;;;;;21.40;50.60;;;;;;494069;240;1369;-48
2021/10/14 10:26:03;;;;;;;;;;;21.40;50.60;;;;;;494217;241;1214;-48
2021/10/14 10:28:06;;;;;;;;;;;21.40;50.60;;;;;;494436;240;1240;-48
2021/10/14 10:30:05;;;;;;;;;;;21.40;50.50;;;;;;494213;240;1531;-48
2021/10/14 10:32:07;;;;;;;;;;;21.40;50.50;;;;;;494151;240;1365;-48
2021/10/14 10:34:08;;;;;;;;;;;21.40;50.50;;;;;;494132;240;1249;-48
2021/10/14 10:36:09;;;;;;;;;;;21.40;50.50;;;;;;494166;240;1293;-47
2021/10/14 10:38:11;;;;;;;;;;;21.40;50.60;;;;;;494176;241;1238;-48
2021/10/14 10:40:13;;;;;;;;;;;21.40;50.50;;;;;;494351;240;1072;-48
2021/10/14 10:42:14;;;;;;;;;;;21.40;50.50;;;;;;494115;240;2187;-48
2021/10/14 10:44:15;;;;;;;;;;;21.30;50.50;;;;;;494417;240;1081;-48
2021/10/14 10:46:17;;;;;;;;;;;21.40;50.60;;;;;;494199;241;1269;-48
2021/10/14 10:48:17;;;;;;;;;;;21.40;50.60;;;;;;494985;240;2178;-48
2021/10/14 10:50:21;;;;;;;;;;;21.30;50.60;;;;;;495065;240;855;-48
2021/10/14 10:52:20;;;;;;;;;;;21.30;50.60;;;;;;494284;240;2427;-48
2021/10/14 10:54:22;;;;;;;;;;;21.40;50.60;;;;;;494393;240;2178;-48
2021/10/14 10:56:23;;;;;;;;;;;21.30;50.60;;;;;;494264;240;1294;-47
2021/10/14 10:58:24;;;;;;;;;;;21.30;50.60;;;;;;494293;240;1186;-47
2021/10/14 11:00:26;;;;;;;;;;;21.30;50.60;;;;;;494130;241;1094;-48
2021/10/14 11:02:27;;;;;;;;;;;21.40;50.60;;;;;;494444;240;1177;-48
2021/10/14 11:04:28;;;;;;;;;;;21.30;50.60;;;;;;494939;240;1018;-47
2021/10/14 11:06:30;;;;;;;;;;;21.30;50.50;;;;;;494152;240;1232;-47
2021/10/14 11:44:58;;;;;;;;;;;21.30;50.60;;;;;;496296;238;2607;-48
2021/10/14 11:46:59;;;;;;;;;;;21.30;50.60;;;;;;498906;238;1217;-47
2021/10/14 11:49:01;;;;;;;;;;;21.30;50.60;;;;;;498946;238;1079;-48
2021/10/14 11:51:02;;;;;;;;;;;21.30;50.60;;;;;;498844;238;1300;-48
2021/10/14 11:53:08;;;;;;;;;;;21.30;50.50;;;;;;498805;238;1262;-48
2021/10/14 11:55:09;;;;;;;;;;;21.30;50.50;;;;;;499316;238;2201;-48
2021/10/14 11:57:10;;;;;;;;;;;21.40;50.60;;;;;;499037;238;1075;-48
2021/10/14 11:59:11;;;;;;;;;;;21.30;50.50;;;;;;498892;238;1100;-47
2021/10/14 12:01:14;;;;;;;;;;;21.30;50.60;;;;;;498942;238;1342;-48
2021/10/14 12:03:15;;;;;;;;;;;21.30;50.60;;;;;;498877;238;1067;-47
2021/10/14 12:05:16;;;;;;;;;;;21.30;50.60;;;;;;498931;238;1154;-48
2021/10/14 12:07:20;;;;;;;;;;;21.30;50.60;;;;;;498817;238;1060;-47
2021/10/14 12:09:22;;;;;;;;;;;21.30;50.60;;;;;;498853;238;1177;-48
2021/10/14 12:11:25;;;;;;;;;;;21.30;50.60;;;;;;498899;238;1234;-47
2021/10/14 12:13:26;;;;;;;;;;;21.30;50.60;;;;;;498861;238;1049;-47
2021/10/14 12:15:28;;;;;;;;;;;21.30;50.60;;;;;;498838;238;2105;-48
2021/10/14 12:17:29;;;;;;;;;;;21.30;50.60;;;;;;498995;238;1092;-48
2021/10/14 12:19:30;;;;;;;;;;;21.30;50.60;;;;;;499081;238;1081;-48
2021/10/14 12:21:32;;;;;;;;;;;21.30;50.60;;;;;;498901;238;1285;-48
2021/10/14 12:23:35;;;;;;;;;;;21.30;50.60;;;;;;498895;238;1207;-48
2021/10/14 12:25:36;;;;;;;;;;;21.30;50.60;;;;;;498870;238;2139;-48
2021/10/14 12:27:36;;;;;;;;;;;21.30;50.60;;;;;;498851;238;2098;-48
2021/10/14 12:29:37;;;;;;;;;;;21.30;50.50;;;;;;499027;238;1117;-48
2021/10/14 12:31:38;;;;;;;;;;;21.30;50.60;;;;;;499086;234;1573;-48
2021/10/14 12:33:40;;;;;;;;;;;21.30;50.60;;;;;;498917;238;1046;-48